Time;durP1;ratioP1;P1;durP2;ratioP2;P2;SDS_P1;SDS_P2;PMS_P1;PMS_P2;Temp;Humidity;BMP_temperature;BMP_pressure;BME280_temperature;BME280_humidity;BME280_pressure;Samples;Min_cycle;Max_cycle;Signal;HPM_P1;HPM_P2
2022/12/05 03:48:42;;;;;;;8.88;4.22;;;11.50;66.30;;;;;;4813135;24;20451;-79
2022/12/05 03:51:11;;;;;;;10.02;3.83;;;11.50;66.60;;;;;;4789544;29;20122;-72
2022/12/05 03:53:50;;;;;;;8.52;3.60;;;11.50;67.30;;;;;;4790406;29;20205;-73
2022/12/05 03:56:45;;;;;;;8.57;3.67;;;11.50;67.60;;;;;;4788986;30;20055;-73
2022/12/05 03:59:18;;;;;;;6.40;3.03;;;11.60;68.40;;;;;;4788079;29;20060;-71
2022/12/05 04:01:47;;;;;;;10.05;3.30;;;11.90;68.40;;;;;;4789827;29;20051;-73
2022/12/05 04:04:23;;;;;;;6.57;2.90;;;12.10;68.40;;;;;;4789131;30;20058;-71
2022/12/05 04:06:51;;;;;;;7.57;2.67;;;12.30;68.50;;;;;;4789877;30;20139;-72
2022/12/05 04:09:30;;;;;;;9.05;2.97;;;12.50;68.20;;;;;;4773985;30;20059;-76
2022/12/05 04:12:01;;;;;;;8.80;2.78;;;12.70;68.30;;;;;;4790316;29;20047;-73
2022/12/05 04:14:46;;;;;;;8.65;2.95;;;12.90;68.10;;;;;;4789566;29;20430;-72
2022/12/05 04:17:18;;;;;;;10.85;2.65;;;13.00;68.20;;;;;;4789674;29;20124;-75
2022/12/05 04:22:31;;;;;;;7.75;2.33;;;13.30;68.20;;;;;;4789382;29;20051;-72
2022/12/05 04:27:53;;;;;;;7.97;2.83;;;13.50;68.20;;;;;;4789505;30;20447;-73
2022/12/05 04:30:22;;;;;;;6.47;2.13;;;13.60;67.90;;;;;;4789418;29;20055;-71
2022/12/05 04:33:03;;;;;;;8.95;1.98;;;13.70;67.80;;;;;;4773578;29;20485;-73
2022/12/05 04:35:36;;;;;;;10.55;3.10;;;13.80;67.90;;;;;;4781639;29;20108;-73
2022/12/05 04:38:14;;;;;;;14.38;2.58;;;13.90;68.00;;;;;;4803655;29;20055;-73
2022/12/05 04:41:01;;;;;;;11.00;2.25;;;13.90;68.50;;;;;;4792943;29;20055;-72
2022/12/05 04:43:30;;;;;;;8.68;2.65;;;14.00;68.80;;;;;;4792781;29;20478;-73
2022/12/05 04:45:59;;;;;;;9.43;2.65;;;14.10;68.60;;;;;;4793003;29;20563;-73
2022/12/05 04:48:27;;;;;;;10.57;2.58;;;14.10;68.40;;;;;;4790725;29;20080;-73
2022/12/05 04:50:54;;;;;;;10.70;3.25;;;14.20;68.70;;;;;;4808866;29;20375;-74
2022/12/05 04:53:23;;;;;;;16.15;3.30;;;14.30;68.70;;;;;;4776418;30;20051;-73
2022/12/05 04:55:52;;;;;;;15.45;3.05;;;14.40;68.60;;;;;;4792061;30;20450;-73
2022/12/05 04:58:24;;;;;;;7.47;2.45;;;14.40;68.60;;;;;;4792517;29;20493;-75
2022/12/05 05:01:17;;;;;;;11.23;2.75;;;14.40;68.70;;;;;;4776559;30;20048;-79
2022/12/05 05:03:52;;;;;;;11.65;2.65;;;14.50;69.20;;;;;;4776393;30;20526;-76
2022/12/05 05:06:18;;;;;;;12.80;2.97;;;14.50;68.80;;;;;;4776611;30;20133;-75
2022/12/05 05:08:53;;;;;;;11.20;3.03;;;14.50;68.70;;;;;;4791970;29;20051;-75
2022/12/05 05:11:27;;;;;;;20.30;4.35;;;14.60;68.40;;;;;;4792185;30;20516;-74
2022/12/05 05:13:53;;;;;;;14.15;3.45;;;14.50;63.50;;;;;;4792435;30;20150;-73
2022/12/05 05:16:28;;;;;;;29.73;3.97;;;14.30;68.20;;;;;;4792193;29;20055;-75
2022/12/05 05:18:54;;;;;;;14.85;3.63;;;14.40;69.40;;;;;;4791920;30;20083;-75
2022/12/05 05:21:35;;;;;;;20.33;3.50;;;14.50;69.10;;;;;;4791665;29;20117;-75
2022/12/05 05:24:01;;;;;;;15.10;3.40;;;14.70;69.40;;;;;;4792354;30;20051;-76
2022/12/05 05:26:29;;;;;;;15.25;3.15;;;14.70;69.10;;;;;;4792128;29;20054;-72
2022/12/05 05:28:56;;;;;;;15.43;2.83;;;14.80;69.00;;;;;;4791951;30;20044;-74
2022/12/05 05:31:23;;;;;;;12.55;2.90;;;15.00;69.00;;;;;;4798925;29;20059;-77
2022/12/05 05:33:50;;;;;;;17.73;3.40;;;15.00;68.80;;;;;;4761244;30;20051;-78
2022/12/05 05:36:17;;;;;;;16.35;3.55;;;15.10;68.60;;;;;;4791958;30;20059;-78
2022/12/05 05:38:45;;;;;;;14.65;3.60;;;15.10;68.30;;;;;;4791802;30;20043;-75
2022/12/05 05:41:18;;;;;;;23.05;3.70;;;15.10;68.30;;;;;;4792091;29;20367;-74
2022/12/05 05:43:44;;;;;;;24.08;4.13;;;15.10;67.70;;;;;;4791803;30;20059;-74
2022/12/05 05:46:11;;;;;;;15.55;2.92;;;15.20;68.60;;;;;;4799204;29;20351;-75
2022/12/05 05:48:37;;;;;;;18.33;3.83;;;15.20;68.70;;;;;;4791370;29;20099;-76
2022/12/05 05:51:05;;;;;;;15.95;3.33;;;15.20;68.70;;;;;;4774288;30;20067;-76
2022/12/05 05:53:32;;;;;;;17.42;3.10;;;15.20;68.80;;;;;;4788709;30;20054;-76
2022/12/05 05:56:04;;;;;;;17.17;3.60;;;15.20;69.00;;;;;;4790780;29;20074;-76
2022/12/05 05:58:30;;;;;;;16.20;3.13;;;15.10;69.00;;;;;;4788462;30;20051;-76
2022/12/05 06:01:10;;;;;;;17.25;3.58;;;15.00;69.30;;;;;;4782006;29;20465;-76
2022/12/05 06:03:37;;;;;;;19.30;3.80;;;14.90;69.60;;;;;;4789038;29;20056;-76
2022/12/05 06:06:06;;;;;;;13.70;3.30;;;14.80;69.80;;;;;;4783750;30;20048;-76
2022/12/05 06:08:34;;;;;;;22.23;4.30;;;14.80;70.10;;;;;;4778648;30;20472;-71
2022/12/05 06:11:09;;;;;;;13.30;3.17;;;14.70;70.30;;;;;;4777955;30;20105;-74
2022/12/05 06:13:35;;;;;;;17.42;3.63;;;14.70;70.30;;;;;;4762165;30;20055;-73
2022/12/05 06:16:01;;;;;;;20.13;3.95;;;14.60;70.00;;;;;;4789308;29;20047;-73
2022/12/05 06:18:27;;;;;;;16.63;3.85;;;14.50;69.80;;;;;;4791149;30;20051;-73
2022/12/05 06:20:55;;;;;;;14.65;3.70;;;14.50;69.80;;;;;;4791169;30;20426;-76
2022/12/05 06:23:21;;;;;;;14.80;3.72;;;14.50;69.90;;;;;;4790858;30;20055;-74
2022/12/05 06:25:51;;;;;;;18.42;3.85;;;14.40;70.10;;;;;;4790928;30;20043;-74
2022/12/05 06:28:18;;;;;;;19.70;4.10;;;14.30;70.10;;;;;;4790762;29;20083;-74
2022/12/05 06:30:44;;;;;;;13.73;3.30;;;14.30;70.00;;;;;;4791110;30;20093;-71
2022/12/05 06:33:11;;;;;;;14.10;4.18;;;14.30;69.90;;;;;;4790413;29;20055;-71
2022/12/05 06:35:37;;;;;;;11.80;3.90;;;14.20;69.30;;;;;;4790375;29;20557;-73
2022/12/05 06:38:04;;;;;;;13.70;4.30;;;14.10;64.60;;;;;;4790996;30;20055;-77
2022/12/05 06:40:30;;;;;;;14.68;4.25;;;13.70;66.40;;;;;;4775209;30;20207;-76
2022/12/05 06:42:56;;;;;;;10.55;3.88;;;13.70;67.30;;;;;;4790311;30;20138;-79
2022/12/05 06:45:21;;;;;;;15.38;4.78;;;13.70;67.40;;;;;;4789444;29;20043;-77
2022/12/05 06:47:49;;;;;;;26.40;5.80;;;13.70;67.20;;;;;;4789698;30;20047;-78
2022/12/05 06:50:15;;;;;;;16.65;5.05;;;13.80;66.80;;;;;;4773927;30;20071;-77
2022/12/05 06:52:40;;;;;;;14.73;5.18;;;13.70;66.40;;;;;;4774063;30;20052;-78
2022/12/05 06:55:06;;;;;;;17.48;4.63;;;13.70;66.00;;;;;;4790330;30;20059;-79
2022/12/05 06:57:32;;;;;;;15.13;5.00;;;13.70;65.90;;;;;;4751397;30;20083;-77
2022/12/05 07:02:42;;;;;;;;;;;13.60;65.60;;;;;;4755077;30;20056;-78
2022/12/05 07:05:10;;;;;;;9.13;3.97;;;13.60;65.70;;;;;;4754789;30;19926;-77
2022/12/05 07:07:36;;;;;;;10.93;4.18;;;13.60;65.70;;;;;;4769026;30;20551;-78
2022/12/05 07:10:04;;;;;;;14.07;4.50;;;13.50;65.70;;;;;;4755017;30;20062;-75
2022/12/05 07:12:32;;;;;;;8.13;3.97;;;13.50;65.70;;;;;;4739071;30;20472;-77
2022/12/05 07:14:57;;;;;;;14.13;3.95;;;13.40;65.70;;;;;;4754508;30;20052;-77
2022/12/05 07:17:23;;;;;;;7.78;3.10;;;13.40;65.90;;;;;;4754614;30;20047;-77
2022/12/05 07:19:50;;;;;;;12.65;3.50;;;13.40;66.10;;;;;;4754689;30;20122;-78
2022/12/05 07:22:21;;;;;;;10.43;2.95;;;13.40;66.30;;;;;;4765359;30;20116;-78
2022/12/05 07:24:47;;;;;;;10.05;3.40;;;13.30;66.60;;;;;;4789870;29;20422;-76
2022/12/05 07:27:14;;;;;;;10.48;3.35;;;13.30;66.80;;;;;;4790142;29;20075;-78
2022/12/05 07:29:40;;;;;;;15.25;3.20;;;13.30;67.10;;;;;;4790089;29;20097;-77
2022/12/05 07:32:06;;;;;;;20.10;3.60;;;13.30;67.30;;;;;;4790684;29;20051;-75
2022/12/05 07:34:32;;;;;;;10.02;3.20;;;13.30;67.60;;;;;;4790425;29;20347;-73
2022/12/05 07:36:59;;;;;;;10.52;3.25;;;13.20;68.10;;;;;;4789705;29;20134;-74
2022/12/05 07:39:25;;;;;;;16.08;3.35;;;13.20;68.50;;;;;;4774139;30;20375;-69
2022/12/05 07:41:50;;;;;;;12.55;3.10;;;13.20;68.50;;;;;;4790091;30;20468;-71
2022/12/05 07:44:16;;;;;;;11.43;3.55;;;13.20;67.80;;;;;;4789949;30;20134;-72
2022/12/05 07:46:42;;;;;;;10.27;3.05;;;13.10;67.50;;;;;;4790554;29;20074;-77
2022/12/05 07:49:08;;;;;;;15.65;4.18;;;13.10;67.90;;;;;;4789658;30;20355;-77
2022/12/05 07:51:34;;;;;;;16.30;3.55;;;13.10;67.90;;;;;;4787984;29;20466;-77
2022/12/05 07:54:00;;;;;;;22.02;4.40;;;13.10;67.80;;;;;;4789899;29;20063;-76
2022/12/05 07:56:27;;;;;;;18.33;3.78;;;13.00;67.90;;;;;;4790049;30;20055;-77
2022/12/05 07:58:53;;;;;;;21.92;4.03;;;13.00;67.90;;;;;;4789978;29;20106;-77
2022/12/05 08:01:24;;;;;;;16.13;3.75;;;13.00;67.80;;;;;;4788700;29;20051;-75
2022/12/05 08:03:53;;;;;;;25.42;3.45;;;13.00;68.00;;;;;;4772889;30;20062;-75
2022/12/05 08:06:25;;;;;;;14.82;3.50;;;13.00;68.00;;;;;;4771826;30;20120;-75
2022/12/05 08:08:52;;;;;;;15.38;3.17;;;13.00;68.10;;;;;;4772434;30;20059;-77
2022/12/05 08:11:20;;;;;;;11.07;4.05;;;13.00;68.10;;;;;;4775301;30;20048;-76
2022/12/05 08:13:46;;;;;;;10.88;2.92;;;13.00;68.20;;;;;;4775471;30;20056;-75
2022/12/05 08:16:15;;;;;;;9.52;2.60;;;13.00;68.30;;;;;;4775246;30;20363;-76
2022/12/05 08:18:41;;;;;;;6.15;2.83;;;13.00;68.40;;;;;;4775802;30;20201;-76
2022/12/05 08:21:16;;;;;;;17.33;3.25;;;12.90;68.40;;;;;;4775491;30;20051;-75
2022/12/05 08:23:43;;;;;;;8.88;2.88;;;12.90;68.50;;;;;;4759708;30;20052;-77
2022/12/05 08:26:14;;;;;;;9.85;2.95;;;12.90;68.50;;;;;;4775230;30;20048;-75
2022/12/05 08:28:41;;;;;;;10.30;2.72;;;12.90;68.70;;;;;;4775648;30;20070;-74
2022/12/05 08:31:13;;;;;;;12.10;3.53;;;12.90;68.70;;;;;;4775174;30;20091;-76
2022/12/05 08:33:39;;;;;;;10.82;2.60;;;12.90;68.80;;;;;;4791810;30;20109;-76
2022/12/05 08:36:08;;;;;;;12.65;3.30;;;12.90;68.80;;;;;;4793024;30;20121;-75
2022/12/05 08:38:34;;;;;;;8.77;2.70;;;12.90;68.80;;;;;;4793037;30;20055;-78
2022/12/05 08:41:01;;;;;;;8.70;2.67;;;12.80;68.90;;;;;;4762414;30;20059;-75
2022/12/05 08:43:29;;;;;;;9.98;2.38;;;12.90;69.00;;;;;;4793258;30;20340;-76
2022/12/05 08:45:55;;;;;;;9.13;2.97;;;12.80;68.90;;;;;;4792945;30;20043;-75
2022/12/05 08:48:21;;;;;;;7.97;2.42;;;12.80;69.00;;;;;;4792403;29;20460;-77
2022/12/05 08:50:47;;;;;;;6.35;2.65;;;12.80;69.00;;;;;;4792513;29;20051;-76
2022/12/05 08:53:13;;;;;;;6.15;2.20;;;12.80;69.10;;;;;;4776851;30;20055;-77
2022/12/05 08:55:39;;;;;;;6.38;3.05;;;12.80;69.20;;;;;;4792777;29;20142;-75
2022/12/05 08:58:05;;;;;;;14.25;2.08;;;12.80;69.20;;;;;;4792336;29;20185;-76
2022/12/05 09:00:30;;;;;;;7.78;2.05;;;12.80;69.90;;;;;;4792305;29;20048;-76
2022/12/05 09:02:57;;;;;;;5.00;2.25;;;12.80;69.30;;;;;;4781179;30;20056;-76
2022/12/05 09:05:23;;;;;;;7.57;2.00;;;12.70;69.30;;;;;;4775204;30;20369;-74
2022/12/05 09:07:49;;;;;;;8.13;2.30;;;12.70;69.40;;;;;;4788048;30;20055;-76
2022/12/05 09:10:15;;;;;;;6.32;2.13;;;12.70;69.40;;;;;;4792434;30;20055;-75
2022/12/05 09:12:41;;;;;;;5.82;1.83;;;12.70;69.50;;;;;;4792554;30;20047;-76
2022/12/05 09:15:08;;;;;;;4.45;2.35;;;12.70;69.50;;;;;;4791906;30;20051;-71
2022/12/05 09:17:34;;;;;;;6.60;2.63;;;12.70;69.50;;;;;;4792254;29;20058;-71
2022/12/05 09:20:00;;;;;;;12.82;3.05;;;12.70;69.20;;;;;;4792408;29;20043;-72
2022/12/05 09:22:25;;;;;;;10.98;2.63;;;12.70;69.10;;;;;;4791749;30;20523;-71
2022/12/05 09:24:56;;;;;;;9.60;2.53;;;12.70;69.00;;;;;;4791866;29;20134;-76
2022/12/05 09:27:24;;;;;;;9.75;2.90;;;12.70;69.00;;;;;;4783411;29;20087;-70
2022/12/05 09:29:51;;;;;;;10.63;2.95;;;12.70;69.10;;;;;;4773410;30;20168;-74
2022/12/05 09:32:17;;;;;;;9.20;2.40;;;12.60;68.50;;;;;;4773964;30;20110;-69
2022/12/05 09:34:43;;;;;;;8.07;2.85;;;12.50;69.20;;;;;;4771900;30;20586;-70
2022/12/05 09:37:09;;;;;;;7.15;3.38;;;12.50;68.80;;;;;;4773036;30;20643;-70
2022/12/05 09:39:35;;;;;;;5.28;2.40;;;12.50;68.70;;;;;;4773051;30;20056;-70
2022/12/05 09:42:29;;;;;;;8.85;3.03;;;12.50;68.60;;;;;;4773726;30;20083;-71
2022/12/05 09:45:10;;;;;;;11.20;3.30;;;12.40;68.20;;;;;;4791943;30;20372;-77
2022/12/05 09:47:58;;;;;;;6.72;3.15;;;12.40;68.30;;;;;;4775477;30;20174;-76
2022/12/05 09:50:40;;;;;;;8.98;3.22;;;12.40;68.20;;;;;;4791861;29;20055;-78
2022/12/05 09:53:15;;;;;;;4.18;2.58;;;12.40;68.50;;;;;;4791568;30;20052;-78
2022/12/05 09:55:47;;;;;;;8.98;3.75;;;12.30;68.60;;;;;;4791725;30;20055;-76
2022/12/05 09:58:39;;;;;;;5.15;2.38;;;12.20;68.70;;;;;;4791618;29;20092;-76
2022/12/05 10:01:32;;;;;;;5.47;2.50;;;12.20;68.90;;;;;;4788841;29;20055;-76
2022/12/05 10:04:11;;;;;;;7.45;2.92;;;12.20;69.20;;;;;;4773572;30;20143;-75
2022/12/05 10:06:45;;;;;;;6.75;2.65;;;12.20;69.30;;;;;;4774113;30;20074;-77
2022/12/05 10:09:17;;;;;;;5.97;3.17;;;12.10;69.50;;;;;;4773476;30;20052;-76
2022/12/05 10:12:10;;;;;;;7.68;2.75;;;12.10;69.60;;;;;;4772771;30;20056;-75
2022/12/05 10:14:52;;;;;;;7.30;2.80;;;12.10;69.80;;;;;;4767373;30;20102;-76
2022/12/05 10:17:31;;;;;;;6.07;3.03;;;12.20;70.00;;;;;;4772790;30;20059;-75
2022/12/05 10:20:01;;;;;;;4.38;2.45;;;12.10;69.90;;;;;;4772725;30;20047;-77
2022/12/05 10:22:45;;;;;;;6.38;2.70;;;12.10;70.00;;;;;;4773123;30;20087;-78
2022/12/05 10:25:15;;;;;;;4.90;2.38;;;12.10;70.00;;;;;;4772905;30;20043;-76
2022/12/05 10:27:51;;;;;;;7.88;2.80;;;12.10;70.10;;;;;;4786497;30;20066;-78
2022/12/05 10:30:20;;;;;;;5.05;2.78;;;12.10;70.20;;;;;;4772611;30;20055;-75
2022/12/05 10:33:05;;;;;;;8.65;3.28;;;12.10;70.90;;;;;;4786675;29;20051;-75
2022/12/05 10:35:34;;;;;;;4.95;2.30;;;12.10;70.70;;;;;;4786925;30;20051;-75
2022/12/05 10:38:05;;;;;;;8.43;2.92;;;12.10;70.70;;;;;;4772705;30;20132;-77
2022/12/05 10:40:44;;;;;;;6.25;2.03;;;12.20;70.80;;;;;;4772449;30;20055;-77
2022/12/05 10:43:15;;;;;;;6.47;2.22;;;12.30;70.60;;;;;;4772761;30;20047;-75
2022/12/05 10:45:44;;;;;;;7.45;2.17;;;12.50;70.20;;;;;;4757557;30;20505;-75
2022/12/05 10:48:12;;;;;;;5.78;2.17;;;12.80;69.70;;;;;;4776926;29;20355;-77
2022/12/05 10:50:41;;;;;;;4.40;1.77;;;13.10;69.30;;;;;;4790597;30;20089;-77
2022/12/05 10:53:12;;;;;;;7.25;2.15;;;13.30;68.90;;;;;;4790562;30;20116;-78
2022/12/05 10:55:42;;;;;;;7.53;1.90;;;13.50;68.60;;;;;;4790063;30;20456;-78
2022/12/05 10:58:14;;;;;;;8.18;1.92;;;13.60;68.50;;;;;;4791177;29;20077;-78
2022/12/05 11:00:45;;;;;;;9.15;1.90;;;13.70;68.30;;;;;;4790634;29;20098;-77
2022/12/05 11:03:30;;;;;;;6.25;1.50;;;13.80;68.10;;;;;;4790680;30;20137;-78
2022/12/05 11:06:02;;;;;;;5.28;1.52;;;13.90;68.30;;;;;;4790498;30;20051;-77
2022/12/05 11:08:32;;;;;;;7.00;1.70;;;14.00;68.10;;;;;;4790528;30;20050;-77
2022/12/05 11:11:06;;;;;;;12.85;2.10;;;14.10;68.10;;;;;;4774473;30;20105;-75
2022/12/05 11:13:34;;;;;;;7.38;2.05;;;14.20;68.00;;;;;;4790825;30;20055;-76
2022/12/05 11:16:00;;;;;;;5.82;1.50;;;14.30;67.70;;;;;;4790261;30;20467;-78
2022/12/05 11:18:31;;;;;;;7.15;1.70;;;14.40;67.40;;;;;;4774685;30;20065;-78
2022/12/05 11:21:12;;;;;;;8.70;1.63;;;14.50;67.40;;;;;;4790400;30;20058;-77
2022/12/05 11:23:38;;;;;;;9.75;2.00;;;14.50;67.40;;;;;;4789611;29;20065;-77
2022/12/05 11:26:35;;;;;;;8.45;1.45;;;14.60;67.30;;;;;;4790415;30;20095;-77
2022/12/05 11:29:03;;;;;;;7.20;1.50;;;14.50;67.70;;;;;;4789496;30;20055;-76
2022/12/05 11:31:30;;;;;;;7.78;2.05;;;14.60;67.50;;;;;;4774678;30;20058;-79
2022/12/05 11:34:19;;;;;;;6.47;1.70;;;14.80;67.60;;;;;;4788228;29;20086;-77
2022/12/05 11:37:13;;;;;;;23.17;2.53;;;14.90;67.50;;;;;;4789347;30;20115;-76
2022/12/05 11:39:39;;;;;;;6.93;1.70;;;15.00;67.40;;;;;;4772825;30;20130;-76
2022/12/05 11:42:26;;;;;;;5.80;1.33;;;15.00;67.40;;;;;;4774139;30;20062;-75
2022/12/05 11:45:13;;;;;;;5.10;1.40;;;15.10;67.50;;;;;;4789147;30;20055;-78
2022/12/05 11:47:45;;;;;;;4.65;1.27;;;15.10;67.40;;;;;;4789558;29;20048;-78
2022/12/05 11:50:19;;;;;;;5.63;0.95;;;15.20;67.60;;;;;;4789391;29;20063;-77
2022/12/05 11:53:27;;;;;;;6.63;1.45;;;15.30;67.70;;;;;;4788313;30;20070;-78
2022/12/05 11:56:13;;;;;;;4.00;1.48;;;15.30;67.80;;;;;;4787293;30;20094;-77
2022/12/05 11:58:57;;;;;;;9.35;1.52;;;15.30;67.70;;;;;;4773347;30;20059;-76
2022/12/05 12:01:35;;;;;;;;;;;15.30;67.60;;;;;;4788535;30;20062;-72
2022/12/05 12:04:34;;;;;;;5.18;1.05;;;15.30;67.80;;;;;;4788730;29;20297;-77
2022/12/05 12:07:21;;;;;;;4.45;1.10;;;15.20;64.70;;;;;;4774088;30;20051;-75
2022/12/05 12:10:18;;;;;;;7.63;1.30;;;15.10;67.90;;;;;;4789349;30;20051;-75
2022/12/05 12:12:46;;;;;;;6.97;1.23;;;15.00;68.10;;;;;;4774003;30;20417;-76
2022/12/05 12:15:49;;;;;;;11.50;1.42;;;15.00;68.20;;;;;;4789543;30;20094;-76
2022/12/05 12:18:23;;;;;;;7.65;1.40;;;14.90;68.30;;;;;;4789915;30;20056;-74
2022/12/05 12:21:12;;;;;;;12.43;1.65;;;14.80;68.50;;;;;;4789598;30;20130;-76
2022/12/05 12:23:58;;;;;;;11.88;2.13;;;14.80;68.60;;;;;;4788524;29;20186;-76
2022/12/05 12:26:51;;;;;;;8.93;1.42;;;14.70;68.00;;;;;;4789667;30;20119;-76
2022/12/05 12:29:48;;;;;;;10.52;2.10;;;14.60;68.00;;;;;;4789198;30;20515;-75
2022/12/05 12:32:30;;;;;;;7.57;1.55;;;14.60;68.20;;;;;;4789183;30;20103;-77
2022/12/05 12:35:15;;;;;;;19.65;2.72;;;14.50;68.30;;;;;;4773471;30;20086;-75
2022/12/05 12:37:56;;;;;;;13.15;2.20;;;14.50;68.70;;;;;;4789710;30;20070;-76
2022/12/05 12:40:29;;;;;;;10.73;2.65;;;14.40;68.50;;;;;;4789426;30;20051;-75
2022/12/05 12:43:11;;;;;;;16.48;2.28;;;14.30;68.60;;;;;;4789608;30;20134;-77
2022/12/05 12:45:56;;;;;;;10.73;2.20;;;14.30;68.60;;;;;;4789670;30;20142;-75
2022/12/05 12:48:28;;;;;;;10.90;2.00;;;14.20;68.60;;;;;;4789744;30;20430;-75
2022/12/05 12:50:54;;;;;;;11.32;1.80;;;14.20;68.70;;;;;;4790061;30;20352;-75
2022/12/05 12:53:38;;;;;;;8.23;1.88;;;14.20;68.70;;;;;;4789469;30;20153;-74
2022/12/05 12:56:19;;;;;;;12.60;2.22;;;14.10;68.60;;;;;;4791108;29;20054;-75
2022/12/05 12:59:06;;;;;;;10.65;2.35;;;14.10;68.70;;;;;;4792675;30;20439;-75
2022/12/05 13:01:35;;;;;;;6.00;2.08;;;14.00;68.70;;;;;;4788237;29;20497;-76
2022/12/05 13:04:11;;;;;;;14.05;1.85;;;14.00;68.70;;;;;;4773843;30;20065;-76
2022/12/05 13:06:44;;;;;;;10.70;2.40;;;14.00;69.40;;;;;;4774736;30;20447;-75
2022/12/05 13:09:36;;;;;;;7.38;1.83;;;13.90;68.70;;;;;;4759231;30;20341;-76
2022/12/05 13:12:16;;;;;;;8.18;2.38;;;13.90;68.70;;;;;;4758665;30;20143;-75
2022/12/05 13:14:57;;;;;;;6.25;1.65;;;13.90;68.80;;;;;;4774163;30;20486;-74
2022/12/05 13:17:23;;;;;;;7.32;1.50;;;13.80;68.80;;;;;;4774285;30;20127;-76
2022/12/05 13:19:51;;;;;;;8.35;1.80;;;13.80;68.80;;;;;;4774933;30;20060;-75
2022/12/05 13:22:20;;;;;;;5.63;1.58;;;13.80;68.90;;;;;;4774461;30;20055;-75
2022/12/05 13:24:46;;;;;;;6.07;1.95;;;13.70;68.90;;;;;;4774381;30;20047;-76
2022/12/05 13:27:19;;;;;;;5.63;2.00;;;13.70;68.90;;;;;;4774701;30;20365;-74
2022/12/05 13:30:08;;;;;;;9.13;2.10;;;13.70;68.90;;;;;;4774249;30;20359;-76
2022/12/05 13:32:37;;;;;;;5.18;1.58;;;13.60;68.90;;;;;;4769428;30;20067;-72
2022/12/05 13:35:15;;;;;;;8.48;1.88;;;13.70;69.10;;;;;;4791696;30;20144;-73
2022/12/05 13:43:22;;;;;;;14.23;2.95;;;13.60;69.10;;;;;;4791508;30;20130;-76
2022/12/05 13:46:09;;;;;;;13.63;2.75;;;13.60;69.10;;;;;;4791533;30;20055;-75
2022/12/05 13:48:45;;;;;;;17.50;2.50;;;13.50;69.20;;;;;;4791952;30;20059;-74
2022/12/05 13:51:16;;;;;;;10.88;2.17;;;13.50;69.40;;;;;;4791064;29;20059;-79
2022/12/05 13:53:46;;;;;;;8.23;1.90;;;13.60;69.70;;;;;;4788810;30;20086;-75
2022/12/05 13:56:11;;;;;;;21.90;2.80;;;13.80;69.60;;;;;;4788728;30;20098;-72
2022/12/05 13:58:52;;;;;;;17.95;2.10;;;14.00;69.40;;;;;;4791457;30;20090;-77
2022/12/05 14:01:26;;;;;;;15.27;2.33;;;14.20;69.30;;;;;;4788668;30;20115;-75
2022/12/05 14:03:54;;;;;;;22.17;3.08;;;14.20;69.30;;;;;;4773073;30;20051;-75
2022/12/05 14:06:38;;;;;;;19.15;3.83;;;14.30;69.50;;;;;;4773038;30;20129;-77
2022/12/05 14:09:19;;;;;;;19.20;3.60;;;14.40;69.60;;;;;;4755956;30;20132;-77
2022/12/05 14:12:10;;;;;;;14.27;2.58;;;14.50;69.70;;;;;;4771028;30;20059;-78
2022/12/05 14:14:54;;;;;;;16.88;3.03;;;14.50;69.70;;;;;;4773357;30;20048;-77
2022/12/05 14:17:43;;;;;;;16.73;2.75;;;14.60;70.00;;;;;;4773037;30;20054;-69
2022/12/05 14:20:15;;;;;;;14.80;2.67;;;14.60;69.50;;;;;;4773025;30;20047;-71
2022/12/05 14:22:59;;;;;;;20.25;3.33;;;14.70;69.00;;;;;;4773868;30;20055;-75
2022/12/05 14:25:43;;;;;;;9.20;2.30;;;14.80;68.40;;;;;;4772968;30;20059;-73
2022/12/05 14:28:28;;;;;;;9.18;1.70;;;14.90;67.90;;;;;;4773084;30;20112;-73
2022/12/05 14:31:15;;;;;;;11.07;1.92;;;15.00;66.70;;;;;;4772572;30;20056;-74
2022/12/05 14:33:41;;;;;;;5.43;1.70;;;15.10;66.00;;;;;;4754628;30;20430;-74
2022/12/05 14:36:17;;;;;;;10.00;2.13;;;15.10;65.70;;;;;;4740120;30;20386;-74
2022/12/05 14:38:43;;;;;;;11.00;1.60;;;15.20;65.10;;;;;;4755022;30;20487;-73
2022/12/05 14:41:21;;;;;;;8.75;1.77;;;15.20;65.10;;;;;;4754907;30;20048;-73
2022/12/05 14:43:52;;;;;;;7.22;1.60;;;15.30;65.50;;;;;;4754922;30;20139;-74
2022/12/05 14:46:28;;;;;;;5.95;1.27;;;15.30;65.80;;;;;;4740209;30;20052;-72
2022/12/05 14:48:54;;;;;;;7.55;1.52;;;15.40;66.00;;;;;;4778297;30;20059;-72
2022/12/05 14:51:29;;;;;;;5.32;0.90;;;15.40;66.20;;;;;;4772149;30;20442;-74
2022/12/05 14:54:16;;;;;;;6.70;1.00;;;15.40;66.60;;;;;;4772672;30;20052;-72
2022/12/05 14:56:51;;;;;;;5.93;1.42;;;15.50;66.80;;;;;;4772542;30;20118;-74
2022/12/05 14:59:42;;;;;;;12.65;1.70;;;15.50;67.00;;;;;;4786509;29;20075;-73
2022/12/05 15:02:21;;;;;;;8.35;1.48;;;15.50;67.10;;;;;;4780480;29;20051;-71
2022/12/05 15:04:55;;;;;;;13.90;1.67;;;15.60;67.50;;;;;;4789650;29;20134;-72
2022/12/05 15:07:37;;;;;;;14.45;1.90;;;15.60;66.80;;;;;;4790036;30;20059;-73
2022/12/05 15:10:10;;;;;;;14.30;2.28;;;15.70;65.20;;;;;;4790122;29;20372;-73
2022/12/05 15:13:03;;;;;;;16.20;2.53;;;15.70;64.60;;;;;;4790256;30;20051;-72
2022/12/05 15:15:38;;;;;;;14.97;2.80;;;15.70;63.00;;;;;;4774654;30;20436;-72
2022/12/05 15:18:41;;;;;;;14.68;1.75;;;15.60;64.10;;;;;;4789741;29;20182;-70
2022/12/05 15:21:09;;;;;;;9.27;2.25;;;15.50;63.70;;;;;;4790316;30;20055;-73
2022/12/05 15:23:42;;;;;;;14.52;2.70;;;15.30;63.50;;;;;;4774385;29;20108;-78
2022/12/05 15:26:35;;;;;;;10.57;1.80;;;15.20;63.80;;;;;;4774048;30;20055;-76
2022/12/05 15:29:03;;;;;;;13.10;2.22;;;14.90;64.40;;;;;;4789950;29;20054;-77
2022/12/05 15:31:31;;;;;;;8.63;1.75;;;14.90;64.90;;;;;;4789961;30;20441;-75
2022/12/05 15:34:04;;;;;;;8.85;1.60;;;15.00;65.40;;;;;;4789561;30;20048;-74
2022/12/05 15:36:37;;;;;;;9.25;2.72;;;15.00;65.50;;;;;;4781696;29;20063;-76
2022/12/05 15:39:16;;;;;;;13.30;1.73;;;14.90;65.80;;;;;;4781839;30;20467;-79
2022/12/05 15:41:42;;;;;;;15.38;1.88;;;14.90;65.90;;;;;;4788253;29;20047;-77
2022/12/05 15:44:10;;;;;;;15.98;2.70;;;14.80;66.40;;;;;;4784857;30;20103;-80
2022/12/05 15:46:41;;;;;;;12.82;1.92;;;14.80;66.80;;;;;;4784334;29;20055;-71
2022/12/05 15:49:24;;;;;;;14.43;2.10;;;14.80;67.30;;;;;;4779464;30;20059;-77
2022/12/05 15:52:20;;;;;;;12.63;2.25;;;14.70;67.20;;;;;;4781849;30;20446;-73
2022/12/05 15:54:47;;;;;;;17.65;2.22;;;14.80;67.00;;;;;;4774114;29;20126;-70
2022/12/05 15:57:24;;;;;;;9.77;2.22;;;14.70;66.80;;;;;;4778387;29;20054;-75
2022/12/05 16:00:03;;;;;;;13.15;2.60;;;14.70;66.30;;;;;;4779499;30;20063;-77
2022/12/05 16:03:00;;;;;;;18.17;2.60;;;14.60;66.90;;;;;;4786911;29;20074;-76
2022/12/05 16:05:51;;;;;;;13.73;2.30;;;14.60;68.90;;;;;;4764773;30;20063;-78
2022/12/05 16:08:17;;;;;;;12.25;2.17;;;14.50;69.60;;;;;;4771986;30;20066;-74
2022/12/05 16:10:43;;;;;;;14.05;2.20;;;14.50;69.70;;;;;;4779537;29;20055;-76
2022/12/05 16:13:14;;;;;;;19.58;3.40;;;14.50;69.90;;;;;;4779433;29;20471;-78
2022/12/05 16:15:47;;;;;;;28.25;2.47;;;14.50;70.30;;;;;;4780601;30;20043;-76
2022/12/05 16:18:30;;;;;;;12.45;2.88;;;14.40;70.50;;;;;;4778397;30;20453;-78
2022/12/05 16:20:57;;;;;;;18.48;3.53;;;14.50;70.50;;;;;;4755367;30;20464;-82
2022/12/05 16:23:27;;;;;;;20.55;3.33;;;14.40;70.00;;;;;;4770534;30;20097;-76
2022/12/05 16:25:53;;;;;;;18.77;2.80;;;14.40;69.80;;;;;;4786925;29;20070;-79
2022/12/05 16:28:20;;;;;;;20.50;2.83;;;14.40;70.00;;;;;;4789458;29;20118;-78
2022/12/05 16:31:01;;;;;;;17.25;3.40;;;14.40;70.30;;;;;;4790218;29;20063;-74
2022/12/05 16:33:29;;;;;;;22.75;3.67;;;14.40;70.80;;;;;;4793242;29;20078;-75
2022/12/05 16:36:23;;;;;;;22.02;3.25;;;14.40;70.60;;;;;;4776925;30;20498;-80
2022/12/05 16:38:48;;;;;;;35.10;5.38;;;14.40;70.40;;;;;;4777138;29;20050;-80
2022/12/05 16:41:15;;;;;;;36.90;5.15;;;14.30;70.30;;;;;;4777222;30;20080;-79
2022/12/05 16:43:44;;;;;;;37.53;5.10;;;14.30;70.50;;;;;;4792424;29;20103;-80
2022/12/05 16:46:10;;;;;;;30.38;4.43;;;14.50;70.70;;;;;;4791809;30;20051;-79
2022/12/05 16:48:36;;;;;;;37.15;5.03;;;14.60;70.70;;;;;;4761443;30;20460;-80
2022/12/05 16:51:16;;;;;;;35.80;4.50;;;14.80;70.50;;;;;;4792677;30;20040;-77
2022/12/05 16:53:49;;;;;;;47.45;4.95;;;15.00;70.60;;;;;;4791674;29;20043;-78
2022/12/05 16:56:21;;;;;;;38.35;5.25;;;15.10;70.60;;;;;;4792170;29;20176;-80
2022/12/05 16:58:47;;;;;;;54.58;6.50;;;15.20;70.60;;;;;;4791574;29;20055;-79
2022/12/05 17:01:19;;;;;;;42.92;5.68;;;15.20;70.60;;;;;;4792703;30;20554;-79
2022/12/05 17:03:45;;;;;;;48.08;6.57;;;15.30;70.80;;;;;;4792701;30;20130;-78
2022/12/05 17:06:13;;;;;;;43.13;5.53;;;15.30;70.80;;;;;;4792708;30;20054;-79
2022/12/05 17:08:39;;;;;;;43.80;5.65;;;15.30;71.00;;;;;;4792373;29;20055;-77
2022/12/05 17:11:14;;;;;;;40.50;5.88;;;15.30;71.10;;;;;;4792137;30;20051;-78
2022/12/05 17:13:40;;;;;;;47.80;6.78;;;15.30;71.40;;;;;;4792371;30;20043;-78